Flight Track Log - Related Links

Times and Time Zones

All times are in EDT time to prevent confusion due to time zone crossing. See the N251RG flight status page for this flight to view local times or setup timezone preferences in your user account.

Time Position Orientation Groundspeed Altitude Reporting Facility
EDT Latitude Longitude Course Direction KTS MPH feet Rate Location/Type
Sun 05:30:56 PM 40.6167 -75.4833 194° South 114 131 3,700  Level Philadelphia TRACON
Sun 05:32:02 PM 40.5833 -75.4833 180° South 116 133 5,200 1,200 Climbing Philadelphia TRACON
Sun 05:32:56 PM 40.5500 -75.4833 180° South 131 151 6,100 421 Climbing Philadelphia TRACON
Sun 05:33:56 PM 40.5000 -75.5000 194° South 197 227 6,000 -50 Descending Philadelphia TRACON
Sun 05:34:56 PM 40.4500 -75.5167 194° South 190 219 6,000  Level Philadelphia TRACON
Sun 05:35:00 PM 40.4640 -75.7065 194° South  Level FlightAware Approximate
Sun 05:35:56 PM 40.4000 -75.5167 180° South 191 220 6,000  Level Philadelphia TRACON
Sun 05:36:00 PM 40.4136 -75.7233 194° South  Level FlightAware Approximate
Sun 05:37:02 PM 40.3333 -75.5333 191° South 197 227 6,000  Level Philadelphia TRACON
Sun 05:38:08 PM 40.2833 -75.5500 194° South 188 216 6,000 667 Level Philadelphia TRACON
Sun 05:39:08 PM 40.2333 -75.5500 180° South 132 152 7,400 905 Climbing Philadelphia TRACON
Sun 05:40:14 PM 40.2000 -75.5667 201° Southwest 148 170 7,900 273 Climbing Philadelphia TRACON
Sun 05:41:20 PM 40.1500 -75.5833 194° South 180 207 8,000 50 Climbing Philadelphia TRACON
Sun 05:42:14 PM 40.1000 -75.6000 194° South 181 208 8,000  Level Philadelphia TRACON
Sun 05:43:14 PM 40.0500 -75.6167 194° South 186 214 8,000 50 Level Philadelphia TRACON
Sun 05:44:14 PM 40.0000 -75.6500 207° Southwest 193 222 8,100  Climbing Philadelphia TRACON
Sun 05:45:14 PM 39.9500 -75.6667 194° South 193 222 8,000 -48 Descending Philadelphia TRACON
Sun 05:46:20 PM 39.8833 -75.6667 180° South 205 236 8,000  Level Philadelphia TRACON
Sun 05:47:20 PM 39.8333 -75.6500 166° South 202 232 8,000  Level Philadelphia TRACON
Sun 05:48:26 PM 39.7833 -75.6333 166° South 204 235 8,000 53 Level Philadelphia TRACON
Sun 05:49:14 PM 39.7333 -75.6167 166° South 203 234 8,100 56 Climbing Philadelphia TRACON
Sun 05:50:14 PM 39.6833 -75.6000 166° South 199 229 8,100 -50 Level Philadelphia TRACON
Sun 05:51:14 PM 39.6167 -75.6167 191° South 207 238 8,000 -50 Descending Philadelphia TRACON
Sun 05:52:14 PM 39.5667 -75.5833 153° Southeast 203 234 8,000  Level Philadelphia TRACON
Sun 05:53:15 PM 39.5000 -75.5667 169° South 207 238 8,000  Level Philadelphia TRACON
Sun 05:53:54 PM 39.4761 -75.5672 181° South 209 241 8,000  Level Washington Center
Sun 05:54:52 PM 39.4197 -75.5567 172° South 204 235 8,000  Level Washington Center
Sun 05:55:52 PM 39.3636 -75.5433 170° South 204 235 8,000  Level Washington Center
Sun 05:56:53 PM 39.3072 -75.5300 170° South 204 235 8,000  Level Washington Center
Sun 05:57:53 PM 39.2531 -75.5192 171° South 199 229 8,000  Level Washington Center
Sun 05:58:54 PM 39.2092 -75.5433 203° Southwest 189 217 8,000  Level Washington Center
Sun 05:59:52 PM 39.1697 -75.5756 212° Southwest 177 204 8,000  Level Washington Center
Sun 06:00:53 PM 39.1300 -75.6131 216° Southwest 172 198 8,000  Level Washington Center
Sun 06:01:53 PM 39.0947 -75.6478 217° Southwest 172 198 8,000  Level Washington Center
Sun 06:02:54 PM 39.0550 -75.6825 214° Southwest 178 205 8,000  Level Washington Center
Sun 06:03:52 PM 39.0153 -75.7200 216° Southwest 178 205 8,000 -50 Level Washington Center
Sun 06:04:53 PM 38.9758 -75.7597 218° Southwest 178 205 7,900  Descending Washington Center
Sun 06:05:53 PM 38.9361 -75.7972 216° Southwest 178 205 8,000  Climbing Washington Center
Sun 06:06:53 PM 38.8964 -75.8369 218° Southwest 178 205 7,900  Descending Washington Center
Sun 06:07:54 PM 38.8567 -75.8717 214° Southwest 178 205 8,000 99 Climbing Washington Center
Sun 06:08:54 PM 38.8150 -75.9086 215° Southwest 178 205 8,100 51 Climbing Washington Center
Sun 06:09:52 PM 38.7731 -75.9431 213° Southwest 178 205 8,100  Level Washington Center
Sun 06:10:52 PM 38.7356 -75.9775 216° Southwest 178 205 8,100  Level Washington Center
Sun 06:11:53 PM 38.6978 -76.0119 215° Southwest 178 205 8,100  Level Washington Center
Sun 06:12:54 PM 38.6581 -76.0489 216° Southwest 173 199 8,100  Level Washington Center
Sun 06:13:52 PM 38.6206 -76.0858 218° Southwest 173 199 8,100  Level Washington Center
Sun 06:14:53 PM 38.5847 -76.1203 217° Southwest 173 199 8,100 -49 Level Washington Center
Sun 06:15:54 PM 38.5431 -76.1569 215° Southwest 189 217 8,000 -50 Descending Washington Center
Sun 06:16:52 PM 38.5094 -76.1967 223° Southwest 189 217 8,000  Level Washington Center
Sun 06:17:52 PM 38.4697 -76.2333 216° Southwest 184 212 8,000  Level Washington Center
Sun 06:18:53 PM 38.4339 -76.2703 219° Southwest 179 206 8,000  Level Washington Center
Sun 06:19:54 PM 38.3964 -76.3044 216° Southwest 173 199 8,000  Level Washington Center
Sun 06:20:52 PM 38.3586 -76.3383 215° Southwest 173 199 8,000  Level Washington Center
Sun 06:21:53 PM 38.3228 -76.3697 215° Southwest 173 199 8,000  Level Washington Center
Sun 06:22:54 PM 38.2831 -76.4011 212° Southwest 173 199 8,000  Level Washington Center
Sun 06:23:54 PM 38.2472 -76.4456 224° Southwest 173 199 8,000  Level Washington Center
Sun 06:24:52 PM 38.2219 -76.4903 234° Southwest 173 199 8,000  Level Washington Center
Sun 06:25:53 PM 38.1925 -76.5322 228° Southwest 173 199 8,000  Level Washington Center
Sun 06:26:53 PM 38.1586 -76.5794 228° Southwest 173 199 8,000  Level Washington Center
Sun 06:27:53 PM 38.1269 -76.6239 228° Southwest 173 199 8,000  Level Washington Center
Sun 06:28:51 PM 38.0953 -76.6656 226° Southwest 173 199 8,000  Level Washington Center
Sun 06:29:52 PM 38.0658 -76.7100 230° Southwest 173 199 8,000 -49 Level Washington Center
Sun 06:30:53 PM 38.0319 -76.7544 226° Southwest 173 199 7,900 -50 Descending Washington Center
Sun 06:31:53 PM 38.0003 -76.7986 228° Southwest 173 199 7,900 50 Level Washington Center
Sun 06:32:53 PM 37.9686 -76.8428 228° Southwest 173 199 8,000 50 Climbing Washington Center
Sun 06:33:54 PM 37.9286 -76.8817 217° Southwest 173 199 8,000  Level Washington Center
Sun 06:34:52 PM 37.8906 -76.9231 221° Southwest 179 206 8,000  Level Washington Center
Sun 06:36:33 PM 37.8333 -76.9833 220° Southwest 183 211 8,000  Level Potomac TRACON
Sun 06:37:33 PM 37.7833 -77.0333 218° Southwest 181 208 8,000 50 Level Potomac TRACON
Sun 06:38:33 PM 37.7500 -77.0667 218° Southwest 180 207 8,100  Climbing Potomac TRACON
Sun 06:39:33 PM 37.7167 -77.1000 218° Southwest 183 211 8,000 -50 Descending Potomac TRACON
Sun 06:40:34 PM 37.6667 -77.1500 218° Southwest 184 212 8,000 50 Level Potomac TRACON
Sun 06:41:34 PM 37.6333 -77.1833 218° Southwest 183 211 8,100  Climbing Potomac TRACON
Sun 06:42:34 PM 37.5833 -77.2333 218° Southwest 184 212 8,000  Descending Potomac TRACON
Sun 06:43:34 PM 37.5500 -77.2667 218° Southwest 182 209 8,100 33 Climbing Potomac TRACON
Sun 06:45:34 PM 37.4833 -77.3667 230° Southwest 163 188 8,100 -33 Level Potomac TRACON
Sun 06:46:34 PM 37.4500 -77.4167 230° Southwest 183 211 8,000  Descending Potomac TRACON
Sun 06:47:34 PM 37.4333 -77.4833 253° West 182 209 8,100  Climbing Potomac TRACON
Sun 06:48:28 PM 37.4000 -77.5333 230° Southwest 190 219 8,000 -50 Descending Potomac TRACON
Sun 06:49:34 PM 37.3667 -77.5833 230° Southwest 191 220 8,000  Level Potomac TRACON
Sun 06:50:28 PM 37.3500 -77.6500 253° West 193 222 8,000 53 Level Potomac TRACON
Sun 06:51:28 PM 37.3167 -77.7000 230° Southwest 192 221 8,100  Climbing Potomac TRACON
Sun 06:52:28 PM 37.2833 -77.7500 230° Southwest 193 222 8,000 -49 Descending Potomac TRACON
Sun 06:53:30 PM 37.2664 -77.8100 250° West 189 217 8,000  Level Washington Center
Sun 06:54:30 PM 37.2381 -77.8667 238° Southwest 189 217 8,000  Level Washington Center
Sun 06:55:29 PM 37.2119 -77.9233 240° Southwest 189 217 8,000  Level Washington Center
Sun 06:56:29 PM 37.1858 -77.9772 239° Southwest 189 217 8,000  Level Washington Center
Sun 06:57:30 PM 37.1597 -78.0311 239° Southwest 189 217 8,000 50 Level Washington Center
Sun 06:58:30 PM 37.1317 -78.0850 237° Southwest 189 217 8,100 51 Climbing Washington Center
Sun 06:59:28 PM 37.1075 -78.1414 242° Southwest 189 217 8,100 -50 Level Washington Center
Sun 07:00:29 PM 37.0833 -78.1928 239° Southwest 189 217 8,000 -50 Descending Washington Center
Sun 07:01:29 PM 37.0592 -78.2467 241° Southwest 189 217 8,000  Level Washington Center
Sun 07:02:30 PM 37.0308 -78.3028 238° Southwest 189 217 8,000 -50 Level Washington Center
Sun 07:03:30 PM 37.0025 -78.3592 238° Southwest 189 217 7,900  Descending Washington Center
Sun 07:04:28 PM 36.9719 -78.4178 237° Southwest 189 217 8,000 51 Climbing Washington Center
Sun 07:05:28 PM 36.9456 -78.4714 238° Southwest 189 217 8,000  Level Washington Center
Sun 07:06:29 PM 36.9192 -78.5250 238° Southwest 189 217 8,000  Level Washington Center
Sun 07:07:30 PM 36.8928 -78.5811 240° Southwest 189 217 8,000  Level Washington Center
Sun 07:08:30 PM 36.8686 -78.6269 237° Southwest 189 217 8,000  Level Washington Center
Sun 07:09:28 PM 36.8422 -78.6803 238° Southwest 189 217 8,000  Level Washington Center
Sun 07:10:29 PM 36.8158 -78.7364 240° Southwest 189 217 8,000  Level Washington Center
Sun 07:11:30 PM 36.7872 -78.7897 236° Southwest 189 217 8,000  Level Washington Center
Sun 07:12:27 PM 36.7564 -78.8506 238° Southwest 189 217 8,000  Level Washington Center
Sun 07:13:28 PM 36.7300 -78.9014 237° Southwest 189 217 8,000  Level Washington Center
Sun 07:14:28 PM 36.7014 -78.9572 237° Southwest 189 217 8,000  Level Washington Center
Sun 07:15:29 PM 36.6747 -79.0131 239° Southwest 189 217 8,000  Level Washington Center
Sun 07:16:29 PM 36.6461 -79.0661 236° Southwest 194 223 8,000  Level Washington Center
Sun 07:17:28 PM 36.6175 -79.1192 236° Southwest 194 223 8,000  Level Washington Center
Sun 07:18:28 PM 36.5953 -79.1647 239° Southwest 189 217 8,000  Level Washington Center
Sun 07:19:29 PM 36.5664 -79.2178 236° Southwest 189 217 8,000  Level Washington Center
Sun 07:20:30 PM 36.5375 -79.2758 238° Southwest 189 217 8,000  Level Washington Center
Sun 07:22:00 PM 36.4929 -79.3520 234° Southwest  Level FlightAware Approximate
Sun 07:29:00 PM 36.2931 -79.7143 238° Southwest  Level FlightAware Approximate
Sun 07:30:00 PM 36.2665 -79.7676 238° Southwest  Level FlightAware Approximate
Sun 07:31:00 PM 36.2399 -79.8208 238° Southwest  Level FlightAware Approximate
Sun 07:32:00 PM 36.2133 -79.8740 238° Southwest  Level FlightAware Approximate
Sun 07:33:00 PM 36.1866 -79.9271 238° Southwest  Level FlightAware Approximate
Sun 07:34:00 PM 36.1600 -79.9802 238° Southwest  Level FlightAware Approximate
Sun 07:35:00 PM 36.1326 -80.0327 237° Southwest  Level FlightAware Approximate
Sun 07:36:00 PM 36.1048 -80.0849 237° Southwest  Level FlightAware Approximate
Sun 07:37:00 PM 36.0770 -80.1371 237° Southwest  Level FlightAware Approximate

Login

Don't have an account? Register now (free) for customized features, flight alerts, and more!